Tiempo atmosférico en la estación meteorológica de Murcia, Murcia (61 m.)



Fecha
DESCASC
Temp. máxima en grados centígrados (hora)
DESCASC
Temp. mínima en grados centígrados (hora)
DESCASC
Temp. media en grados centígrados
DESCASC
Racha de viento máxima en m/sg (hora)
DESCASC
Velocidad máxima media en intervalos de 10 minutos(hora)
DESCASC
Precipitaciones diarias en mm
DESCASC
Precipitaciones de 00:00 a 06:00 en mm
DESCASC
Precipitaciones de 06:00 a 12:00 en mm
DESCASC
Precipitaciones de 12:00 a 18:00 en mm
DESCASC
Precipitaciones de 18:00 a 24:00 en mm
DESCASC
17-02-2019 17.3 (15:40) 4.9 (06:00) 11.1 6.11 (17:30) 3.89 (16:20) 0 0 0 0 0
16-02-2019 17.3 (15:00) 7.7 (08:50) 12.5 9.44 (15:50) 4.72 (15:50) 0 0 0 0 0
15-02-2019 16.6 (15:00) 10.5 (08:00) 13.6 7.5 (16:30) 4.44 (16:10) 0 0 0 0 0
14-02-2019 16.7 (14:50) 9.1 (00:00) 12.9 8.61 (14:20) 5 (14:50) 0 0 0 0 0
13-02-2019 16.8 (15:30) 4.7 (00:00) 10.7 6.94 (17:30) 4.44 (17:10) 0 0 0 0 0
12-02-2019 17.8 (16:50) 6.2 (00:00) 12 5.83 (12:50) 3.61 (14:30) 0 0 0 0 0
11-02-2019 20.4 (13:10) 7.6 (00:00) 14 8.33 (15:10) 5.56 (15:10) 0 0 0 0 0
10-02-2019 21.3 (14:30) 4.5 (00:00) 12.9 10.83 (16:00) 6.39 (16:00) 0 0 0 0 0
09-02-2019 23.3 (16:20) 4.3 (00:00) 13.8 6.11 (17:20) 3.33 (13:50) 0 0 0 0 0
08-02-2019 21.2 (17:00) 5 (00:00) 13.1 5.56 (21:20) 3.33 (21:20) 0 0 0 0 0
07-02-2019 24.2 (17:10) 6 (00:00) 15.1 8.89 (12:10) 5.56 (12:20) 0 0 0 0 0
06-02-2019 23.3 (16:20) 5.7 (00:00) 14.5 5.28 (16:50) 3.06 (16:50) 0 0 0 0 0
05-02-2019 22.2 (16:50) 3 (00:00) 12.6 7.22 (14:20) 4.72 (14:20) 0 0 0 0 0
04-02-2019 18.8 (17:00) 5.8 (00:00) 12.3 9.17 (06:10) 4.72 (05:20) 0 0 0 0 0
03-02-2019 13.8 (16:20) 8.1 (00:00) 11 18.61 (11:10) 10.56 (11:20) 0 0 0 0 0
02-02-2019 15.5 (14:20) 9.7 (00:00) 12.6 19.17 (22:50) 10.83 (22:40) 0 0 0 0 0
01-02-2019 20.6 (12:10) 11 (00:00) 15.8 14.17 (14:00) 8.33 (15:20) 0 0 0 0 0
31-01-2019 22.8 (15:50) 10.6 (00:00) 16.7 13.33 (16:00) 8.33 (16:00) 0 0 0 0 0
30-01-2019 18.4 (15:30) 9.1 (00:00) 13.8 10 (00:10) 6.11 (00:10) 0 0 0 0 0
29-01-2019 19.6 (15:50) 7.7 (00:00) 13.7 11.11 (17:30) 6.39 (16:10) 0 0 0 0 0
28-01-2019 21.2 (15:30) 8.2 (00:00) 14.7 13.89 (13:30) 9.17 (13:40) 0 0 0 0 0
27-01-2019 20.1 (13:00) 4.9 (00:00) 12.5 15.83 (16:00) 9.17 (16:00) 0 0 0 0 0
26-01-2019 21.4 (16:30) 6.7 (00:00) 14 8.33 (03:00) 5.83 (03:10) 0 0 0 0 0
25-01-2019 20.9 (14:20) 11.9 (00:00) 16.4 12.5 (15:00) 7.22 (14:50) 0 0 0 0 0
24-01-2019 19.7 (13:10) 13.1 (00:00) 16.4 16.94 (15:50) 8.61 (15:50) 0 0 0 0 0
23-01-2019 19.3 (13:00) 6.9 (00:00) 13.1 16.39 (14:00) 10 (14:00) 0 0 0 0 0
22-01-2019 14 (15:20) 3.2 (00:00) 8.6 11.39 (20:10) 5.83 (15:40) 0 0 0 0 0
21-01-2019 15.3 (16:10) 4.7 (00:00) 10 10.56 (11:20) 6.67 (11:20) 0 0 0 0 0
20-01-2019 14.4 (13:40) 7.4 (00:00) 10.9 10.28 (16:00) 6.11 (14:30) 1.2 0.6 0.6 0 0
19-01-2019 17.3 (15:40) 4.5 (00:00) 10.9 4.72 (08:50) 3.33 (09:00) 0 0 0 0 0

Gráficas

Temp. máximas Temp. mínimas Temp. medias Precipitaciones Rachas de viento máximas Velocidades máximas media en intervalos de 10 minutos

Datos horarios

Fecha y hora oficial Temperatura (ºC) Velocidad del viento (km/h) Dirección del viento Racha (km/h) Dirección de racha Precipitación (mm) Presión (hPa) Tendencia (hPa) Humedad (%)
2019-02-17 23:00:00 9.8 5 Noroeste 7 Nordeste 0 1016.8 0.5 91
2019-02-17 22:00:00 9.8 5 Nordeste 8 Nordeste 0 1016.6 0.8 91
2019-02-17 21:00:00 10.5 5 Nordeste 14 Nordeste 0 1016.5 0.8 88
2019-02-17 20:00:00 11.3 8 Nordeste 17 Este 0 1016.3 0.5 82
2019-02-17 19:00:00 13 9 Este 20 Este 0 1015.8 -0.5 73
2019-02-17 18:00:00 14.4 13 Este 22 Este 0 1015.7 -1.2 65
2019-02-17 17:00:00 16.2 10 Este 22 Este 0 1015.8 -2.2 58
2019-02-17 16:00:00 16.4 11 Este 18 Nordeste 0 1016.3 -2.8 59
2019-02-17 15:00:00 15.9 12 Este 18 Nordeste 0 1016.9 -2.7 56
2019-02-17 14:00:00 15 5 Este 14 Este 0 1018 -1.9 54
2019-02-17 13:00:00 12.4 6 Oeste 13 Oeste 0 1019.1 -1 53
2019-02-17 12:00:00 11 6 Noroeste 11 Oeste 0 1019.6 -0.3 55
2019-02-17 11:00:00 8.7 6 Oeste 14 Noroeste 0 1019.9 0.5 61
2019-02-17 10:00:00 7.4 6 Noroeste 13 Oeste 0 1020.1 0.8 67
2019-02-17 09:00:00 6.7 8 Oeste 14 Oeste 0 1019.9 0.8 69
2019-02-17 08:00:00 6.2 7 Noroeste 12 Noroeste 0 1019.4 0.3 73
2019-02-17 07:00:00 5.4 7 Oeste 14 Oeste 0 1019.3 -0.2 76
2019-02-17 06:00:00 4.9 6 Sur 14 Oeste 0 1019.1 -0.7 77
2019-02-17 05:00:00 5.4 4 Sur 9 Sudoeste 0 1019.1 -0.9 74
2019-02-17 04:00:00 5.9 3 Sudoeste 12 Noroeste 0 1019.5 -0.7 74
2019-02-17 03:00:00 6.5 8 Noroeste 13 Noroeste 0 1019.8 -0.6 72
2019-02-17 02:00:00 6.5 5 Sudeste 10 Noroeste 0 1020 -0.5 78
2019-02-17 01:00:00 7.5 4 Sur 11 Noroeste 0 1020.2 0 76
2019-02-17 00:00:00 8 6 Oeste 14 Noroeste 0 1020.4 0.2 76
2019-02-16 23:00:00 8.5 8 Noroeste 12 Oeste 0 1020.5 0.7 80
2019-02-16 22:00:00 8.4 5 Norte 9 Norte 0 1020.2 0.8 79
2019-02-16 21:00:00 10.1 0 Calma 14 Este 0 1020.2 1.2 71
2019-02-16 20:00:00 12.1 8 Este 17 Sudeste 0 1019.8 0.8 63
2019-02-16 19:00:00 13.2 12 Este 23 Este 0 1019.4 -0.1 55
2019-02-16 18:00:00 15.2 13 Este 24 Este 0 1019 -1.1 48
2019-02-16 17:00:00 16.3 16 Este 27 Este 0 1019 -1.9 41
2019-02-16 16:00:00 16.9 17 Este 34 Este 0 1019.5 -2.4 38
2019-02-16 15:00:00 17.3 13 Este 27 Este 0 1020.1 -2.5 41
2019-02-16 14:00:00 16.3 13 Este 26 Este 0 1020.9 -1.5 52
2019-02-16 13:00:00 14.5 14 Este 26 Nordeste 0 1021.9 -0.4 59
2019-02-16 12:00:00 13.6 16 Nordeste 23 Nordeste 0 1022.6 0.8 61
2019-02-16 11:00:00 12.1 7 Oeste 17 Noroeste 0 1022.4 1.3 67
2019-02-16 10:00:00 9.8 5 Noroeste 20 Noroeste 0 1022.3 1.7 75
2019-02-16 09:00:00 7.9 9 Noroeste 23 Noroeste 0 1021.8 1.3 83
2019-02-16 08:00:00 8.3 14 Noroeste 21 Noroeste 0 1021.1 0.6 83
2019-02-16 07:00:00 8.6 13 Noroeste 19 Noroeste 0 1020.6 0.1 83
2019-02-16 06:00:00 9.5 11 Noroeste 16 Noroeste 0 1020.5 -0.2 82
2019-02-16 05:00:00 9.7 3 Sudeste 8 Norte 0 1020.5 -0.4 85
2019-02-16 04:00:00 9.6 6 Noroeste 14 Norte 0 1020.5 -0.6 85
2019-02-16 03:00:00 9.8 9 Noroeste 13 Noroeste 0 1020.7 -0.7 85
2019-02-16 02:00:00 11.3 5 Norte 9 Norte 0 1020.9 -0.7 80
2019-02-16 01:00:00 11.8 9 Nordeste 15 Nordeste 0 1021.1 -0.3 78
2019-02-16 00:00:00 12 10 Nordeste 19 Nordeste 0 1021.4 0.3 80
2019-02-15 23:00:00 12.4 9 Nordeste 19 Nordeste 0 1021.6 0.8 79
2019-02-15 22:00:00 12.6 12 Nordeste 19 Este 0 1021.4 0.9 78
2019-02-15 21:00:00 12.8 10 Nordeste 18 Nordeste 0 1021.1 1 76
2019-02-15 20:00:00 12.9 12 Este 19 Nordeste 0 1020.8 0.8 74
2019-02-15 19:00:00 13.3 11 Este 22 Este 0 1020.5 0.5 73
2019-02-15 18:00:00 14.3 12 Este 25 Este 0 1020.1 -0.4 67
2019-02-15 17:00:00 15.5 13 Este 27 Este 0 1020 -1.5 61
2019-02-15 16:00:00 16.4 15 Este 24 Este 0 1020 -2.8 57
2019-02-15 15:00:00 16.5 11 Este 19 Este 0 1020.5 -3.1 56
2019-02-15 14:00:00 15.5 6 Este 17 Este 0 1021.5 -2.1 58
2019-02-15 13:00:00 13.9 7 Este 15 Nordeste 0 1022.8 -0.7 63
2019-02-15 12:00:00 13.5 6 Nordeste 13 Nordeste 0 1023.6 0.3 63
2019-02-15 11:00:00 12.8 6 Norte 11 Norte 0 1023.6 0.8 64
2019-02-15 10:00:00 12.1 3 Norte 12 Este 0 1023.5 1 67
2019-02-15 09:00:00 11.2 4 Noroeste 8 Oeste 0 1023.3 0.9 71
2019-02-15 08:00:00 10.5 0 Calma 6 Este 0 1022.8 0.3 78
2019-02-15 07:00:00 10.9 5 Noroeste 10 Noroeste 0 1022.5 -0.4 73
2019-02-15 06:00:00 11 4 Noroeste 8 Noroeste 0 1022.4 -0.9 74
2019-02-15 05:00:00 11 0 Calma 4 Sudeste 0 1022.5 -1.2 77
2019-02-15 04:00:00 11.3 3 Este 10 Nordeste 0 1022.9 -1.1 77
2019-02-15 03:00:00 11.5 6 Nordeste 11 Nordeste 0 1023.3 -0.9 75
2019-02-15 02:00:00 11.5 0 Calma 4 Sur 0 1023.7 -0.6 76
2019-02-15 01:00:00 11.5 0 Calma 7 Noroeste 0 1024 -0.2 75
2019-02-15 00:00:00 11.3 7 Nordeste 10 Nordeste 0 1024.2 0.1 77
2019-02-14 23:00:00 11.2 3 Nordeste 8 Norte 0 1024.3 0 78
2019-02-14 22:00:00 10.5 6 Nordeste 9 Este 0 1024.2 0.2 82
2019-02-14 21:00:00 10.7 5 Nordeste 11 Nordeste 0 1024.1 0.3 80
2019-02-14 20:00:00 11.6 7 Este 14 Este 0 1024.3 0.3 77
2019-02-14 19:00:00 12.9 10 Este 18 Este 0 1024 -0.2 70
2019-02-14 18:00:00 14 11 Este 26 Este 0 1023.8 -0.9 64
2019-02-14 17:00:00 14.7 15 Este 25 Este 0 1024 -1.3 61
2019-02-14 16:00:00 15 14 Nordeste 26 Nordeste 0 1024.2 -2 55
2019-02-14 15:00:00 15.9 15 Nordeste 31 Nordeste 0 1024.7 -2.3 53
2019-02-14 14:00:00 15.5 15 Nordeste 24 Nordeste 0 1025.3 -1.8 52
2019-02-14 13:00:00 14.9 13 Este 26 Este 0 1026.2 -0.7 54
2019-02-14 12:00:00 14.5 15 Nordeste 23 Nordeste 0 1027 0.3 55
2019-02-14 11:00:00 13.8 8 Este 14 Este 0 1027.1 0.9 59
2019-02-14 10:00:00 12.5 4 Nordeste 7 Nordeste 0 1026.9 0.9 64
2019-02-14 09:00:00 10 2 Sur 5 Sur 0 1026.7 1 76
2019-02-14 08:00:00 9.2 3 Sudoeste 5 Sudeste 0 1026.2 0.8 79
2019-02-14 07:00:00 9.5 0 Calma 5 Noroeste 0 1026 0.8 77
2019-02-14 06:00:00 10.3 6 Noroeste 9 Noroeste 0 1025.7 0.2 72
2019-02-14 05:00:00 10.1 3 Noroeste 6 Noroeste 0 1025.4 -0.2 73
2019-02-14 04:00:00 9.7 2 Oeste 4 Este 0 1025.2 -0.4 76
2019-02-14 03:00:00 10.2 0 Calma 4 Sur 0 1025.5 -0.1 74
2019-02-14 02:00:00 10.6 3 Sudoeste 7 Sudeste 0 1025.6 0 72
2019-02-14 01:00:00 10.4 4 Oeste 8 Norte 0 1025.6 0.4 71
2019-02-14 00:00:00 10.6 6 Noroeste 12 Noroeste 0 1025.6 0.6 71
2019-02-13 23:00:00 10.1 3 Sur 5 Sur 0 1025.6 1 75
2019-02-13 22:00:00 8.5 3 Noroeste 6 Norte 0 1025.2 0.8 80
2019-02-13 21:00:00 9.1 4 Norte 9 Nordeste 0 1025 1.1 75
2019-02-13 20:00:00 10.5 6 Nordeste 12 Este 0 1024.6 0.8 70
2019-02-13 19:00:00 12.4 8 Este 18 Este 0 1024.4 0.9 59
2019-02-13 18:00:00 14.3 11 Nordeste 25 Sudeste 0 1023.9 0.1 51
2019-02-13 17:00:00 15.7 15 Este 24 Este 0 1023.8 -0.7 46
2019-02-13 16:00:00 16.5 15 Nordeste 23 Este 0 1023.5 -1.7 47
2019-02-13 15:00:00 16.3 9 Este 24 Este 0 1023.8 -2 48
2019-02-13 14:00:00 15.7 11 Este 18 Nordeste 0 1024.5 -1.4 55
2019-02-13 13:00:00 14.9 5 Norte 12 Sudoeste 0 1025.2 -0.5 59
2019-02-13 12:00:00 12.5 4 Oeste 14 Oeste 0 1025.8 0.3 72
2019-02-13 11:00:00 10.1 9 Noroeste 18 Noroeste 0 1025.9 0.9 77
2019-02-13 10:00:00 8 5 Oeste 13 Noroeste 0 1025.7 1.2 84
2019-02-13 09:00:00 6 4 Sudoeste 8 Noroeste 0 1025.5 1.3 89
2019-02-13 08:00:00 5.4 4 Oeste 15 Oeste 0 1025 0.7 90
2019-02-13 07:00:00 5.3 5 Noroeste 15 Norte 0 1024.5 0 92
2019-02-13 06:00:00 4.7 3 Noroeste 9 Norte 0 1024.2 -0.6 93
2019-02-13 05:00:00 5.3 0 Calma 7 Oeste 0 1024.3 -0.8 91
2019-02-13 04:00:00 5.3 3 Oeste 4 Oeste 0 1024.5 -1 93
2019-02-13 03:00:00 6.1 3 Oeste 8 Oeste 0 1024.8 -0.8 92
2019-02-13 02:00:00 6 0 Calma 5 Sudoeste 0 1025.1 -0.8 90
2019-02-13 01:00:00 7.2 4 Noroeste 9 Oeste 0 1025.5 -0.3 89
2019-02-13 00:00:00 7.3 0 Calma 5 Noroeste 0 1025.6 0 88
2019-02-12 23:00:00 8.5 2 Oeste 6 Norte 0 1025.9 0.5 86
2019-02-12 22:00:00 9.2 4 Norte 8 Nordeste 0 1025.8 0.8 84
2019-02-12 21:00:00 10 6 Nordeste 11 Este 0 1025.6 1 81
2019-02-12 20:00:00 11.8 8 Nordeste 13 Este 0 1025.4 1 73
2019-02-12 19:00:00 13.5 6 Sudeste 17 Sudeste 0 1025 0.7 65
2019-02-12 18:00:00 15.1 10 Este 20 Sudeste 0 1024.6 0 55
2019-02-12 17:00:00 17.4 8 Sur 13 Sur 0 1024.4 -0.4 46
2019-02-12 16:00:00 16.8 6 Sudeste 16 Este 0 1024.3 -1.2 51
2019-02-12 15:00:00 15.5 8 Este 20 Nordeste 0 1024.6 -1.4 54
2019-02-12 14:00:00 15.9 8 Este 17 Nordeste 0 1024.8 -1.1 49
2019-02-12 13:00:00 15.8 7 Este 21 Nordeste 0 1025.5 0 52
2019-02-12 12:00:00 15.6 9 Este 18 Este 0 1026 1.1 55
2019-02-12 11:00:00 14.7 4 Sur 8 Sur 0 1025.9 2 59
2019-02-12 10:00:00 11.6 3 Oeste 10 Oeste 0 1025.5 2.2 73
2019-02-12 09:00:00 8.5 5 Sudoeste 6 Sudoeste 0 1024.9 2 86
2019-02-12 08:00:00 6.3 3 Norte 4 Nordeste 0 1023.9 1.1 92
2019-02-12 07:00:00 7.3 4 Noroeste 6 Noroeste 0 1023.3 0.4 89
2019-02-12 06:00:00 8.1 4 Noroeste 5 Noroeste 0 1022.9 0 87
2019-02-12 05:00:00 9.6 2 Oeste 6 Noroeste 0 1022.8 -0.1 82
2019-02-12 04:00:00 9.6 3 Noroeste 7 Oeste 0 1022.9 -0.2 81
2019-02-12 03:00:00 11.3 4 Noroeste 11 Este 0 1022.9 0 77
2019-02-12 02:00:00 11.9 6 Nordeste 9 Nordeste 0 1022.9 0.2 74
2019-02-12 01:00:00 12.2 5 Nordeste 9 Nordeste 0 1023.1 1.1 76
2019-02-12 00:00:00 12.7 7 Nordeste 16 Nordeste 0 1022.9 1.5 76
2019-02-11 23:00:00 12.9 10 Nordeste 17 Nordeste 0 1022.7 1.9 76
2019-02-11 22:00:00 13.4 11 Nordeste 20 Este 0 1022 2 74
2019-02-11 21:00:00 13.7 10 Este 20 Este 0 1021.4 2 70
2019-02-11 20:00:00 13.9 14 Nordeste 29 Este 0 1020.8 2.1 68
2019-02-11 19:00:00 14.3 13 Este 26 Este 0 1020 1.7 76
2019-02-11 18:00:00 15.9 16 Este 30 Nordeste 0 1019.4 1.5 67
2019-02-11 17:00:00 17.5 15 Este 25 Este 0 1018.7 0.7 59
2019-02-11 16:00:00 17.5 13 Este 30 Este 0 1018.3 -0.2 56
2019-02-11 15:00:00 18.6 18 Nordeste 28 Este 0 1017.9 -1 52
2019-02-11 14:00:00 19.9 17 Norte 27 Norte 0 1018 -1 38
2019-02-11 13:00:00 20.1 15 Noroeste 29 Norte 0 1018.5 -0.6 43
2019-02-11 12:00:00 19.1 18 Norte 27 Norte 0 1018.9 0.5 46
2019-02-11 11:00:00 16.6 7 Sudoeste 15 Sur 0 1019 1 52
2019-02-11 10:00:00 13.3 8 Sur 12 Sur 0 1019.1 1.6 62
2019-02-11 09:00:00 11.2 6 Sudoeste 11 Sudoeste 0 1018.4 1.5 68
2019-02-11 08:00:00 7.6 3 Sur 11 Sur 0 1018 1.1 77
2019-02-11 07:00:00 8.4 5 Noroeste 11 Oeste 0 1017.5 0.5 77
2019-02-11 06:00:00 8.2 3 Sudeste 13 Sudoeste 0 1016.9 0.1 73
2019-02-11 05:00:00 8.8 6 Oeste 12 Oeste 0 1016.9 -0.1 71
2019-02-11 04:00:00 8.4 6 Sudoeste 10 Sudoeste 0 1017 0.1 71
2019-02-11 03:00:00 8.2 4 Oeste 9 Sur 0 1016.8 0 70
2019-02-11 02:00:00 8.6 4 Noroeste 9 Oeste 0 1017 0.6 68
2019-02-11 01:00:00 9.3 3 Sudoeste 9 Oeste 0 1016.9 0.7 65
2019-02-11 00:00:00 9.8 4 Sudoeste 7 Oeste 0 1016.8 0.8 63
2019-02-10 23:00:00 10.7 4 Oeste 10 Oeste 0 1016.4 0.8 59
2019-02-10 22:00:00 12.5 3 Sur 12 Sudoeste 0 1016.2 1.1 52
2019-02-10 21:00:00 14.3 9 Sudoeste 16 Oeste 0 1016 1.2 45
2019-02-10 20:00:00 15.8 9 Oeste 28 Noroeste 0 1015.6 1.1 41
2019-02-10 19:00:00 16.6 18 Noroeste 35 Noroeste 0 1015.1 0.8 39
2019-02-10 18:00:00 17.9 20 Noroeste 37 Noroeste 0 1014.8 0.6 36
2019-02-10 17:00:00 18.9 15 Noroeste 34 Noroeste 0 1014.5 -0.3 34
2019-02-10 16:00:00 19.1 23 Noroeste 39 Noroeste 0 1014.3 -1.3 34
2019-02-10 15:00:00 20.1 17 Noroeste 28 Noroeste 0 1014.2 -1.8 29
2019-02-10 14:00:00 19.7 19 Noroeste 36 Noroeste 0 1014.8 -1.1 30
2019-02-10 13:00:00 18.9 16 Oeste 33 Oeste 0 1015.6 -0.2 32
2019-02-10 12:00:00 17 10 Noroeste 20 Noroeste 0 1016 0.6 39
2019-02-10 11:00:00 14.4 8 Sudoeste 13 Sudoeste 0 1015.9 1.2 44
2019-02-10 10:00:00 10.9 5 Sudoeste 13 Oeste 0 1015.8 1.5 56
2019-02-10 09:00:00 6.7 8 Sudoeste 14 Sur 0 1015.4 1.6 74
2019-02-10 08:00:00 4.8 3 Sudoeste 8 Sur 0 1014.7 0.9 81
2019-02-10 07:00:00 4.9 0 Calma 10 Oeste 0 1014.3 0.2 82
2019-02-10 06:00:00 4.7 3 Sur 8 Sudoeste 0 1013.8 -0.8 82
2019-02-10 05:00:00 6 2 Sur 6 Oeste 0 1013.8 -0.9 78
2019-02-10 04:00:00 6 3 Oeste 7 Noroeste 0 1014.1 -0.8 82
2019-02-10 03:00:00 8.4 5 Sudoeste 11 Oeste 0 1014.6 -0.1 72
2019-02-10 02:00:00 7.9 5 Sudoeste 9 Sudoeste 0 1014.7 -0.2 81
2019-02-10 01:00:00 8.1 4 Sudoeste 6 Sur 0 1014.9 0.3 84
2019-02-10 00:00:00 9 3 Oeste 7 Oeste 0 1014.7 0.4 78
2019-02-09 23:00:00 9.1 2 Noroeste 3 Oeste 0 1014.9 0.8 77
2019-02-09 22:00:00 10.1 2 Oeste 5 Sudeste 0 1014.6 1 71
2019-02-09 21:00:00 14 4 Sudoeste 12 Sudoeste 0 1014.3 1.1 59
2019-02-09 20:00:00 15.1 6 Sudoeste 17 Sudoeste 0 1014.1 0.9 52
2019-02-09 19:00:00 16.7 9 Sudoeste 17 Sur 0 1013.6 0.3 50
2019-02-09 18:00:00 20.1 8 Sur 22 Sur 0 1013.2 -0.8 44
2019-02-09 17:00:00 22.6 6 Este 12 Sudeste 0 1013.2 -1.6 26
2019-02-09 16:00:00 22.8 5 Sudeste 14 Sudoeste 0 1013.3 -2.4 25
2019-02-09 15:00:00 22.3 6 Oeste 15 Noroeste 0 1014 -2.3 26
2019-02-09 14:00:00 20.8 10 Oeste 20 Oeste 0 1014.8 -1.8 29
2019-02-09 13:00:00 19.7 9 Oeste 17 Oeste 0 1015.7 -0.8 35
2019-02-09 12:00:00 18 9 Oeste 17 Sudoeste 0 1016.3 0.2 39
2019-02-09 11:00:00 14.9 6 Sur 10 Sudoeste 0 1016.6 0.9 50
2019-02-09 10:00:00 11.5 3 Sudoeste 9 Oeste 0 1016.5 1.4 65
2019-02-09 09:00:00 7.8 6 Oeste 11 Noroeste 0 1016.1 1.4 75
2019-02-09 08:00:00 5.4 6 Noroeste 8 Noroeste 0 1015.7 1.2 85
2019-02-09 07:00:00 5.3 2 Oeste 8 Noroeste 0 1015.1 0.3 86
2019-02-09 06:00:00 4.6 0 Calma 6 Sudoeste 0 1014.7 -0.2 89
2019-02-09 05:00:00 5.8 4 Oeste 8 Oeste 0 1014.5 -0.3 89
2019-02-09 04:00:00 6.6 3 Oeste 8 Oeste 0 1014.8 -0.2 88
2019-02-09 03:00:00 7 4 Oeste 7 Oeste 0 1014.9 -0.4 90
2019-02-09 02:00:00 7.8 4 Oeste 8 Sudoeste 0 1014.8 -0.3 91
2019-02-09 01:00:00 8.1 3 Oeste 6 Sudoeste 0 1015 0.4 89
2019-02-09 00:00:00 9.1 3 Sudoeste 5 Sudeste 0 1015.3 1 91
2019-02-08 23:00:00 9.9 2 Sudeste 5 Oeste 0 1015.1 1 85
2019-02-08 22:00:00 11.8 3 Norte 20 Sudoeste 0 1014.6 0.8 82
2019-02-08 21:00:00 13.5 10 Sudoeste 17 Sudoeste 0 1014.3 1 77
2019-02-08 20:00:00 14.4 7 Sudoeste 15 Oeste 0 1014.1 0.7 70
2019-02-08 19:00:00 16.5 5 Sudoeste 16 Sur 0 1013.8 0.1 59
2019-02-08 18:00:00 20 5 Sur 12 Sur 0 1013.3 -1.1 48
2019-02-08 17:00:00 21.2 5 Sur 15 Este 0 1013.4 -1.8 38
2019-02-08 16:00:00 20.6 9 Este 15 Este 0 1013.7 -2.4 37
2019-02-08 15:00:00 20.1 6 Este 14 Este 0 1014.4 -2.5 39
2019-02-08 14:00:00 19.5 4 Sudeste 12 Sur 0 1015.2 -2.3 38
2019-02-08 13:00:00 17.7 5 Nordeste 10 Nordeste 0 1016.1 -1.4 42
2019-02-08 12:00:00 15.7 4 Oeste 10 Noroeste 0 1016.9 -0.3 44
2019-02-08 11:00:00 13.1 4 Noroeste 13 Noroeste 0 1017.5 0.6 52
2019-02-08 10:00:00 10.1 9 Noroeste 13 Noroeste 0 1017.5 1.1 60
2019-02-08 09:00:00 8 6 Oeste 11 Oeste 0 1017.2 1 67
2019-02-08 08:00:00 6.8 4 Sudoeste 10 Oeste 0 1016.9 0.8 73
2019-02-08 07:00:00 7.2 7 Sudoeste 11 Sur 0 1016.4 0 73
2019-02-08 06:00:00 7.2 4 Sur 14 Noroeste 0 1016.2 -0.4 75
2019-02-08 05:00:00 5.1 2 Noroeste 8 Noroeste 0 1016.1 -0.8 87
2019-02-08 04:00:00 6.4 3 Oeste 12 Noroeste 0 1016.4 -0.3 84
2019-02-08 03:00:00 7.8 7 Norte 12 Norte 0 1016.6 0.2 82
2019-02-08 02:00:00 8.4 3 Norte 9 Noroeste 0 1016.9 1 82
2019-02-08 01:00:00 9.5 5 Noroeste 9 Noroeste 0 1016.7 1.2 83
2019-02-08 00:00:00 10.3 3 Sur 8 Sur 0 1016.4 1.6 82
2019-02-07 23:00:00 11.8 4 Nordeste 13 Nordeste 0 1015.9 1.8 82
2019-02-07 22:00:00 12.7 9 Norte 19 Nordeste 0 1015.5 2.4 80
2019-02-07 21:00:00 13.5 9 Nordeste 20 Nordeste 0 1014.8 2.6 72
2019-02-07 20:00:00 15.3 13 Este 22 Nordeste 0 1014.1 1.9 65
2019-02-07 19:00:00 17.5 14 Nordeste 21 Nordeste 0 1013.1 0.7 51
2019-02-07 18:00:00 23.4 5 Sudoeste 13 Oeste 0 1012.2 -0.7 24
2019-02-07 17:00:00 24 5 Oeste 16 Noroeste 0 1012.2 -1.5 24
2019-02-07 16:00:00 23.5 8 Noroeste 23 Noroeste 0 1012.4 -2.2 25
2019-02-07 15:00:00 22.9 14 Noroeste 24 Oeste 0 1012.9 -2.6 27
2019-02-07 14:00:00 22 9 Noroeste 20 Noroeste 0 1013.7 -2 28
2019-02-07 13:00:00 21 9 Oeste 32 Noroeste 0 1014.6 -0.8 30
2019-02-07 12:00:00 19 17 Oeste 31 Oeste 0 1015.5 0.4 34
2019-02-07 11:00:00 17.3 10 Oeste 26 Oeste 0 1015.7 1 39
2019-02-07 10:00:00 13.3 8 Sudoeste 17 Oeste 0 1015.4 0.7 49
2019-02-07 09:00:00 7.1 3 Sudoeste 14 Oeste 0 1015.1 0.3 72
2019-02-07 08:00:00 8.8 8 Oeste 12 Sudoeste 0 1014.7 0.1 60
2019-02-07 07:00:00 6.1 2 Sur 8 Sudoeste 0 1014.7 -0.3 74
2019-02-07 06:00:00 7.4 5 Sur 9 Oeste 0 1014.8 -0.3 70
2019-02-07 05:00:00 7.7 8 Sudoeste 12 Sudoeste 0 1014.6 -0.6 71
2019-02-07 04:00:00 7.2 4 Sudoeste 8 Sudoeste 0 1015 -0.7 72
2019-02-07 03:00:00 7.9 3 Sur 7 Oeste 0 1015.1 -0.6 71
2019-02-07 02:00:00 8.2 2 Sudoeste 7 Oeste 0 1015.2 -0.6 70
2019-02-07 01:00:00 9 3 Sudoeste 8 Oeste 0 1015.7 0.1 70
2019-02-07 00:00:00 9.3 6 Oeste 8 Oeste 0 1015.7 0.2 70
2019-02-06 23:00:00 9.4 0 Calma 5 Sudeste 0 1015.8 0.3 67
2019-02-06 22:00:00 11 2 Sudoeste 6 Oeste 0 1015.6 0.2 61
2019-02-06 21:00:00 12.3 0 Calma 10 Oeste 0 1015.5 0.8 54
2019-02-06 20:00:00 15.6 5 Sudoeste 11 Sudoeste 0 1015.5 0.7 45
2019-02-06 19:00:00 17.5 4 Sudoeste 19 Sur 0 1015.4 0.3 39
2019-02-06 18:00:00 21 8 Sur 18 Sudeste 0 1014.7 -1.1 32
2019-02-06 17:00:00 22.4 9 Sur 19 Sur 0 1014.8 -2 31
2019-02-06 16:00:00 22.9 5 Sudeste 14 Este 0 1015.1 -2.8 29
2019-02-06 15:00:00 22.5 5 Sudeste 10 Este 0 1015.8 -3.3 29
2019-02-06 14:00:00 21.4 3 Oeste 9 Sur 0 1016.8 -2.5 31
2019-02-06 13:00:00 20 4 Sudeste 8 Sudeste 0 1017.9 -1.6 33
2019-02-06 12:00:00 17.7 3 Sur 6 Sur 0 1019.1 -0.3 38
2019-02-06 11:00:00 14.8 3 Sudoeste 8 Sur 0 1019.3 0.2 46
2019-02-06 10:00:00 12.3 5 Sudoeste 11 Noroeste 0 1019.5 0.6 52
2019-02-06 09:00:00 9 8 Noroeste 12 Noroeste 0 1019.4 0.6 64
2019-02-06 08:00:00 5.7 4 Oeste 8 Oeste 0 1019.1 0.5 74
2019-02-06 07:00:00 6.1 4 Noroeste 8 Noroeste 0 1018.9 -0.1 73
2019-02-06 06:00:00 8.2 7 Noroeste 11 Oeste 0 1018.8 -0.3 65
2019-02-06 05:00:00 6.8 5 Oeste 9 Oeste 0 1018.6 -0.7 73
2019-02-06 04:00:00 6 0 Calma 4 Oeste 0 1019 -0.5 73
2019-02-06 03:00:00 6.8 0 Calma 7 Noroeste 0 1019.1 -0.5 69
2019-02-06 02:00:00 7.3 2 Sudoeste 7 Oeste 0 1019.3 -0.2 67
2019-02-06 01:00:00 7.9 4 Oeste 8 Oeste 0 1019.5 0.1 67
2019-02-06 00:00:00 9.5 3 Sudoeste 10 Oeste 0 1019.6 0.6 61
2019-02-05 23:00:00 10.2 4 Sudoeste 8 Sudoeste 0 1019.5 -- 60
2019-02-05 22:00:00 10.8 2 Oeste 6 Nordeste 0 1019.4 1.5 57
2019-02-05 21:00:00 12.6 3 Este 11 Nordeste 0 1019 1.7 52
2019-02-05 20:00:00 14.5 5 Norte 12 Sur 0 -- -- 45
2019-02-05 19:00:00 17.4 9 Sudoeste 17 Sudoeste 0 1017.9 0.4 33
2019-02-05 18:00:00 21.3 6 Noroeste 16 Oeste 0 1017.3 -0.9 26
2019-02-05 17:00:00 22.1 8 Noroeste 19 Oeste 0 1017.4 -1.7 25
2019-02-05 16:00:00 21.8 10 Noroeste 24 Noroeste 0 1017.5 -2.5 25
2019-02-05 15:00:00 20.9 13 Noroeste 26 Noroeste 0 1018.2 -2.9 25
2019-02-05 14:00:00 20.4 12 Noroeste 25 Oeste 0 1019.1 -2.3 25
2019-02-05 13:00:00 18.7 12 Noroeste 20 Oeste 0 1020 -1.2 26
2019-02-05 12:00:00 16.2 8 Oeste 23 Oeste 0 1021.1 0.2 26
2019-02-05 11:00:00 14.1 9 Oeste 16 Oeste 0 1021.4 1.1 29
2019-02-05 10:00:00 11 4 Sudoeste 8 Sudoeste 0 1021.2 1.2 36
2019-02-05 09:00:00 7.5 5 Oeste 11 Oeste 0 1020.9 0.9 45
2019-02-05 08:00:00 4 6 Oeste 10 Oeste 0 1020.3 0.7 56
2019-02-05 07:00:00 3.7 4 Sur 10 Sudoeste 0 1020 0.1 61
2019-02-05 06:00:00 4.5 6 Sur 11 Oeste 0 1020 -0.1 56
2019-02-05 05:00:00 3.3 3 Sudeste 6 Sudeste 0 1019.6 -0.6 64
2019-02-05 04:00:00 3.6 3 Oeste 9 Noroeste 0 1019.9 -0.6 61
2019-02-05 03:00:00 4.2 6 Sudoeste 8 Sudoeste 0 1020.1 -0.6 65
2019-02-05 02:00:00 4.5 3 Oeste 6 Oeste 0 1020.2 -0.2 60
2019-02-05 01:00:00 4.1 2 Sudoeste 5 Noroeste 0 1020.5 0 74
2019-02-05 00:00:00 6.1 2 Sur 9 Oeste 0 1020.7 0.7 69
2019-02-04 23:00:00 7.2 6 Oeste 10 Oeste 0 1020.4 0.9 63
2019-02-04 22:00:00 7.2 4 Oeste 6 Oeste 0 1020.5 1.6 68
2019-02-04 21:00:00 9.1 3 Oeste 5 Sur 0 1020 1.5 59
2019-02-04 20:00:00 12.4 4 Sur 17 Sudoeste 0 1019.5 1.1 47
2019-02-04 19:00:00 13.9 5 Sudoeste 10 Sudoeste 0 1018.9 0.4 33
2019-02-04 18:00:00 17.4 2 Oeste 8 Sur 0 1018.5 -0.3 18
2019-02-04 17:00:00 18.7 5 Sudoeste 11 Sudoeste 0 1018.4 -1.2 14
2019-02-04 16:00:00 17.9 4 Sur 15 Sur 0 1018.5 -2.3 16
2019-02-04 15:00:00 16.1 6 Sudoeste 17 Sudoeste 0 1018.8 -2.6 18
2019-02-04 14:00:00 16 8 Oeste 21 Sudoeste 0 1019.6 -1.8 18
2019-02-04 13:00:00 14.8 9 Sudoeste 23 Noroeste 0 1020.8 -0.4 21
2019-02-04 12:00:00 13.4 14 Oeste 31 Noroeste 0 1021.4 0.4 24
2019-02-04 11:00:00 11.3 15 Noroeste 25 Noroeste 0 1021.4 0.7 29
2019-02-04 10:00:00 9.6 5 Oeste 11 Noroeste 0 1021.2 1.2 35
2019-02-04 09:00:00 7.5 3 Este 20 Noroeste 0 1021 1.4 41
2019-02-04 08:00:00 6.2 10 Noroeste 21 Norte 0 1020.7 -0.1 44
2019-02-04 07:00:00 7 7 Noroeste 33 Noroeste 0 1020 0 41
2019-02-04 06:00:00 6.8 9 Noroeste 28 Noroeste 0 1019.6 0 43
2019-02-04 05:00:00 7.4 7 Oeste 26 Noroeste 0 1020.8 1.1 42
2019-02-04 04:00:00 7.4 14 Noroeste 24 Noroeste 0 1020 0.1 41
2019-02-04 03:00:00 7.1 13 Noroeste 20 Noroeste 0 1019.6 0.3 41
2019-02-04 02:00:00 8.1 13 Noroeste 27 Norte 0 1019.7 0.8 38
2019-02-04 01:00:00 8.6 10 Noroeste 26 Noroeste 0 1019.9 1.6 36
2019-02-04 00:00:00 8.8 13 Noroeste 24 Noroeste 0 1019.3 1.7 35
2019-02-03 23:00:00 9.4 5 Oeste 27 Noroeste 0 1018.9 2.1 33
2019-02-03 22:00:00 10.5 16 Noroeste 36 Oeste 0 1018.3 2.2 30
2019-02-03 21:00:00 11 19 Noroeste 41 Noroeste 0 1017.6 2.5 29
2019-02-03 20:00:00 11.3 22 Noroeste 39 Noroeste 0 1016.8 1.6 27
2019-02-03 19:00:00 11.7 19 Noroeste 37 Noroeste 0 1016.1 1.3 25
2019-02-03 18:00:00 12.9 21 Noroeste 40 Noroeste 0 1015.1 1.1 22
2019-02-03 17:00:00 13.6 27 Noroeste 54 Noroeste 0 1015.2 0.2 21
2019-02-03 16:00:00 13.5 33 Noroeste 54 Noroeste 0 1014.8 -0.3 21
2019-02-03 15:00:00 13.4 29 Noroeste 59 Noroeste 0 1014 -0.9 22
2019-02-03 14:00:00 12.2 32 Noroeste 55 Noroeste 0 1015 -0.5 23
2019-02-03 13:00:00 12.4 28 Noroeste 65 Noroeste 0 1015.1 0 22
2019-02-03 12:00:00 11.4 36 Noroeste 67 Noroeste 0 1014.9 0.6 23
2019-02-03 11:00:00 10.5 29 Noroeste 48 Noroeste 0 1015.5 2.6 25
2019-02-03 10:00:00 9.5 28 Noroeste 45 Oeste 0 1015.1 3 31
2019-02-03 09:00:00 8.6 21 Oeste 42 Oeste 0 1014.3 1.9 33
2019-02-03 08:00:00 8.2 24 Noroeste 47 Noroeste 0 1012.9 1.2 35
2019-02-03 07:00:00 8.5 28 Oeste 51 Noroeste 0 1012.1 0.7 34
2019-02-03 06:00:00 8.8 26 Noroeste 51 Oeste 0 1012.4 1.5 36
2019-02-03 05:00:00 9 21 Noroeste 41 Noroeste 0 1011.7 1.4 35
2019-02-03 04:00:00 9 14 Oeste 36 Noroeste 0 1011.4 1.7 35
2019-02-03 03:00:00 9.3 24 Noroeste 49 Noroeste 0 1010.9 2 35
2019-02-03 02:00:00 9.4 19 Noroeste 42 Noroeste 0 1010.3 1.8 35
2019-02-03 01:00:00 9.5 19 Oeste 42 Noroeste 0 1009.7 1.7 33
2019-02-03 00:00:00 9.8 31 Oeste 57 Oeste 0 1008.9 1.5 31
2019-02-02 23:00:00 10.2 36 Noroeste 69 Noroeste 0 1008.5 2 28
2019-02-02 22:00:00 10.7 24 Noroeste 45 Noroeste 0 1008 2.6 30
2019-02-02 21:00:00 11.1 23 Oeste 47 Noroeste 0 1007.4 3.6 31
2019-02-02 20:00:00 11.9 22 Noroeste 50 Noroeste 0 1006.5 3.7 29
2019-02-02 19:00:00 12.7 21 Oeste 48 Oeste 0 1005.4 3.2 24
2019-02-02 18:00:00 13.8 27 Noroeste 60 Noroeste 0 1003.8 2.8 21
2019-02-02 17:00:00 14.1 27 Noroeste 56 Noroeste 0 1002.8 2.7 22
2019-02-02 16:00:00 13.8 31 Noroeste 57 Noroeste 0 1002.2 2.7 23
2019-02-02 15:00:00 15.4 26 Noroeste 57 Noroeste 0 1001 1.1 22
2019-02-02 14:00:00 15.4 36 Noroeste 57 Noroeste 0 1000.1 0.7 24
2019-02-02 13:00:00 14.6 33 Noroeste 57 Noroeste 0 999.5 1.9 27
2019-02-02 12:00:00 13.7 17 Oeste 49 Oeste 0 999.9 3.4 30
2019-02-02 11:00:00 12.3 20 Oeste 54 Noroeste 0 999.4 4.7 33
2019-02-02 10:00:00 12.5 27 Noroeste 54 Noroeste 0 997.6 3.6 34
2019-02-02 09:00:00 11 21 Oeste 42 Oeste 0 996.5 2.6 40
2019-02-02 08:00:00 10.5 29 Noroeste 52 Noroeste 0 994.7 0.5 43
2019-02-02 07:00:00 11 27 Oeste 51 Noroeste 0 994 -0.5 39
2019-02-02 06:00:00 10.8 26 Oeste 44 Oeste 0 993.9 -0.1 39
2019-02-02 05:00:00 11 23 Oeste 44 Oeste 0 994.2 1.3 39
2019-02-02 04:00:00 10.5 13 Oeste 32 Oeste 0 994.5 1.7 42
2019-02-02 03:00:00 10.3 15 Sudoeste 30 Sudoeste 0 994 1.2 48
2019-02-02 02:00:00 10.7 17 Sudoeste 41 Oeste 0 992.9 0.4 47
2019-02-02 01:00:00 11.8 19 Oeste 28 Oeste 0 992.8 0.8 37
2019-02-02 00:00:00 11.4 14 Oeste 27 Oeste 0 992.8 1.2 41
2019-02-01 23:00:00 11.9 9 Oeste 30 Oeste 0 992.5 2.2 46
2019-02-01 22:00:00 12.5 17 Oeste 32 Noroeste 0 992 2.8 50
2019-02-01 21:00:00 14.2 24 Oeste 43 Oeste 0 991.6 1.6 42
2019-02-01 20:00:00 13.8 8 Oeste 21 Noroeste 0 990.3 -- 34
2019-02-01 19:00:00 14.4 9 Oeste 42 Oeste 0 989.2 0.8 35
2019-02-01 18:00:00 16.5 26 Oeste 45 Oeste 0 990 1.4 31
2019-02-01 17:00:00 18.5 24 Oeste 49 Oeste 0 -- -- 19
2019-02-01 16:00:00 19 28 Oeste 48 Noroeste 0 988.4 -0.4 28
2019-02-01 15:00:00 20.4 21 Oeste 44 Oeste 0 988.6 -0.2 25
2019-02-01 14:00:00 20.1 29 Oeste 51 Oeste 0 988.6 -0.1 23
2019-02-01 13:00:00 19.7 20 Noroeste 40 Oeste 0 988.8 0.3 45
2019-02-01 12:00:00 20.3 21 Sudoeste 34 Sudoeste 0 988.8 -0.1 47
2019-02-01 11:00:00 18.8 14 Sudoeste 34 Sudoeste 0 988.7 -0.3 52
2019-02-01 10:00:00 16.3 9 Sudoeste 28 Sudoeste 0 988.5 -0.7 62
2019-02-01 09:00:00 15.9 12 Sudoeste 27 Sudoeste 0 988.9 -0.9 59
2019-02-01 08:00:00 15.8 11 Sudoeste 22 Sudoeste 0 989 -1.7 57
2019-02-01 07:00:00 15.5 12 Sudoeste 20 Sudoeste 0 989.2 -2.6 55
2019-02-01 06:00:00 16.5 12 Sudoeste 21 Sur 0 989.8 -2.5 50
2019-02-01 05:00:00 16.4 6 Este 23 Sur 0 990.7 -2.5 54
2019-02-01 04:00:00 18.1 13 Sudoeste 44 Sudoeste 0 991.8 -2.6 42
2019-02-01 03:00:00 18.6 28 Sudoeste 46 Sudoeste 0 992.3 -2.9 41
2019-02-01 02:00:00 17.9 17 Sudoeste 36 Sur 0 993.2 -2.8 45
2019-02-01 01:00:00 16.7 10 Sudoeste 27 Sudoeste 0 994.4 -2 49
2019-02-01 00:00:00 16.3 8 Sudoeste 21 Sudoeste 0 995.2 -0.7 48
2019-01-31 23:00:00 16.8 11 Sudoeste 26 Sudoeste 0 996 -0.7 47
2019-01-31 22:00:00 17.1 14 Sudoeste 34 Sudoeste 0 996.4 -0.1 47
2019-01-31 21:00:00 17.1 12 Sudoeste 23 Sudoeste 0 995.9 -0.7 48
2019-01-31 20:00:00 18.1 7 Sudoeste 21 Sudoeste 0 996.7 0.8 40
2019-01-31 19:00:00 18.5 7 Oeste 31 Oeste 0 996.5 1 38
2019-01-31 18:00:00 20 20 Oeste 41 Oeste 0 996.6 0.4 36
2019-01-31 17:00:00 21.9 24 Oeste 48 Oeste 0 995.9 -1.4 30
2019-01-31 16:00:00 22.7 30 Oeste 48 Oeste 0 995.5 -2.7 29
2019-01-31 15:00:00 21.4 14 Sudoeste 30 Sudoeste 0 996.2 -2.7 39
2019-01-31 14:00:00 20.8 20 Sudoeste 40 Sudoeste 0 997.3 -1.4 42
2019-01-31 13:00:00 19.4 18 Sudoeste 30 Sudoeste 0 998.2 -0.1 46
2019-01-31 12:00:00 17.8 14 Sudoeste 32 Sudoeste 0 998.9 0.6 49
2019-01-31 11:00:00 17.1 12 Oeste 28 Sudoeste 0 998.7 0.5 50
2019-01-31 10:00:00 16 17 Sudoeste 28 Oeste 0 998.3 0.4 53
2019-01-31 09:00:00 13.8 10 Oeste 17 Oeste 0 998.3 0.3 58
2019-01-31 08:00:00 13.3 8 Oeste 17 Oeste 0 998.2 -0.2 56
2019-01-31 07:00:00 12.7 5 Oeste 10 Oeste 0 997.9 -1.4 55
2019-01-31 06:00:00 13 6 Oeste 15 Oeste 0 998 -1.8 53
2019-01-31 05:00:00 12.2 9 Oeste 15 Oeste 0 998.4 -2.5 56
2019-01-31 04:00:00 10.7 3 Oeste 12 Oeste 0 999.3 -2.5 58
2019-01-31 03:00:00 12.6 9 Oeste 14 Sudoeste 0 999.8 -2.6 52
2019-01-31 02:00:00 10.7 0 Calma 6 Sur 0 1000.9 -1.9 56
2019-01-31 01:00:00 11 4 Sudoeste 8 Sur 0 1001.8 -1 52
2019-01-31 00:00:00 11.2 3 Este 8 Oeste 0 1002.4 -0.8 50
2019-01-30 23:00:00 12.2 6 Sudoeste 10 Sudoeste 0 1002.8 -0.6 44
2019-01-30 22:00:00 12.7 6 Oeste 11 Oeste 0 1002.8 -0.4 41
2019-01-30 21:00:00 12.8 5 Sudoeste 13 Oeste 0 1003.2 0.3 41
2019-01-30 20:00:00 13.9 5 Sudoeste 13 Sudoeste 0 1003.4 0.5 37
2019-01-30 19:00:00 14.1 6 Oeste 14 Noroeste 0 1003.2 0.2 36
2019-01-30 18:00:00 15.7 8 Noroeste 17 Noroeste 0 1002.9 -0.5 32
2019-01-30 17:00:00 17.1 10 Noroeste 22 Noroeste 0 1002.9 -1.6 28
2019-01-30 16:00:00 18.4 9 Oeste 22 Noroeste 0 1003 -2.6 25
2019-01-30 15:00:00 18.1 13 Noroeste 30 Oeste 0 1003.4 -2.7 25
2019-01-30 14:00:00 17.1 8 Oeste 18 Oeste 0 1004.5 -1.5 32
2019-01-30 13:00:00 16.6 12 Noroeste 23 Norte 0 1005.6 0 35
2019-01-30 12:00:00 16.6 12 Noroeste 22 Noroeste 0 1006.1 0.9 38
2019-01-30 11:00:00 15 6 Noroeste 15 Noroeste 0 1006 1.6 44
2019-01-30 10:00:00 11.6 3 Sudoeste 11 Sudoeste 0 1005.6 1.9 57
2019-01-30 09:00:00 10 6 Sudoeste 11 Sudoeste 0 1005.2 1.3 59
2019-01-30 08:00:00 10.1 6 Sur 14 Oeste 0 1004.4 0.4 59
2019-01-30 07:00:00 12.1 9 Oeste 18 Oeste 0 1003.7 -0.5 51
2019-01-30 06:00:00 13.1 14 Oeste 27 Noroeste 0 1003.9 0 47
2019-01-30 05:00:00 13.9 13 Noroeste 28 Oeste 0 1004 0.3 45
2019-01-30 04:00:00 14.4 13 Oeste 24 Oeste 0 1004.2 0.3 46
2019-01-30 03:00:00 14.1 10 Oeste 28 Sudoeste 0 1003.9 0.1 49
2019-01-30 02:00:00 12.8 6 Noroeste 14 Sudoeste 0 1003.7 -0.3 53
2019-01-30 01:00:00 15.8 16 Oeste 36 Noroeste 0 1003.9 0.4 43
2019-01-30 00:00:00 15.6 17 Oeste 37 Noroeste 0 1003.8 0.2 44
2019-01-29 23:00:00 12.4 3 Oeste 28 Oeste 0 1004 0.4 51
2019-01-29 22:00:00 15 10 Oeste 25 Oeste 0 1003.5 -0.2 43
2019-01-29 21:00:00 14.5 8 Oeste 17 Oeste 0 1003.6 -0.1 43
2019-01-29 20:00:00 15.5 8 Sudoeste 31 Noroeste 0 1003.6 -0.4 39
2019-01-29 19:00:00 15.5 9 Oeste 31 Noroeste 0 1003.7 -0.2 41
2019-01-29 18:00:00 16.6 19 Noroeste 40 Noroeste 0 1003.7 -0.2 38
2019-01-29 17:00:00 17.3 22 Noroeste 39 Noroeste 0 1004 -1.6 36
2019-01-29 16:00:00 18.5 22 Noroeste 34 Noroeste 0 1003.9 -2.6 35
2019-01-29 15:00:00 18.5 6 Norte 16 Noroeste 0 1003.9 -4.4 38
2019-01-29 14:00:00 18.8 7 Sur 21 Oeste 0 1005.6 -3.2 36
2019-01-29 13:00:00 16.9 11 Oeste 23 Oeste 0 1006.5 -2.8 39
2019-01-29 12:00:00 16.2 11 Noroeste 24 Noroeste 0 1008.3 -0.8 43
2019-01-29 11:00:00 13.3 7 Sudoeste 22 Oeste 0 1008.8 0.2 51
2019-01-29 10:00:00 12.2 6 Oeste 20 Oeste 0 1009.3 0.5 56
2019-01-29 09:00:00 11.4 14 Noroeste 21 Noroeste 0 1009.1 0.3 57
2019-01-29 08:00:00 10.9 9 Oeste 16 Oeste 0 1008.6 -0.5 56
2019-01-29 07:00:00 9.5 3 Sur 10 Oeste 0 1008.8 -0.3 62
2019-01-29 06:00:00 8.2 4 Oeste 14 Noroeste 0 1008.8 -0.6 66
2019-01-29 05:00:00 7.7 4 Sur 10 Norte 0 1009.1 -0.3 67
2019-01-29 04:00:00 8.9 3 Oeste 10 Sur 0 1009.1 0 62
2019-01-29 03:00:00 12.5 5 Sur 16 Oeste 0 1009.4 0.6 49
2019-01-29 02:00:00 12.1 7 Oeste 15 Oeste 0 1009.4 0.6 51
2019-01-29 01:00:00 13.1 11 Oeste 22 Oeste 0 1009.1 0.3 47
2019-01-29 00:00:00 12.7 13 Oeste 18 Oeste 0 1008.8 0 47
2019-01-28 23:00:00 12.1 8 Oeste 16 Oeste 0 1008.8 0.4 45
2019-01-28 22:00:00 14 10 Oeste 20 Oeste 0 1008.8 1.3 38
2019-01-28 21:00:00 14.6 9 Oeste 28 Noroeste 0 1008.8 2.9 36
2019-01-28 20:00:00 15.2 17 Noroeste 29 Noroeste 0 1008.4 3.1 35
2019-01-28 19:00:00 17 9 Oeste 33 Noroeste 0 1007.5 2.6 25
2019-01-28 18:00:00 19.1 13 Noroeste 28 Noroeste 0 1005.9 0.6 20
2019-01-28 17:00:00 20.4 19 Noroeste 44 Oeste 0 1005.3 -1.1 17
2019-01-28 16:00:00 21.1 27 Noroeste 49 Oeste 0 1004.9 -2.5 15
2019-01-28 15:00:00 21 18 Noroeste 34 Noroeste 0 1005.3 -3.6 16
2019-01-28 14:00:00 19.7 28 Noroeste 50 Oeste 0 1006.4 -2.7 20
2019-01-28 13:00:00 17.8 31 Noroeste 44 Oeste 0 1007.4 -2.2 26
2019-01-28 12:00:00 16.4 13 Oeste 32 Oeste 0 1008.9 -1.2 31
2019-01-28 11:00:00 14.8 9 Oeste 19 Oeste 0 1009.1 -1 35
2019-01-28 10:00:00 11.8 5 Sudoeste 9 Sudoeste 0 1009.6 -0.1 44
2019-01-28 09:00:00 9.1 6 Sudoeste 13 Oeste 0 1010.1 0.8 50
2019-01-28 08:00:00 9.4 5 Oeste 16 Oeste 0 1010.1 0.3 47
2019-01-28 07:00:00 10.2 6 Sudoeste 21 Sudoeste 0 1009.7 0.3 44
2019-01-28 06:00:00 8.9 4 Oeste 15 Norte 0 1009.3 -0.6 49
2019-01-28 05:00:00 10.8 6 Oeste 19 Oeste 0 1009.8 -0.1 42
2019-01-28 04:00:00 12 10 Oeste 25 Noroeste 0 1009.4 -0.2 39
2019-01-28 03:00:00 12.2 12 Oeste 34 Oeste 0 1009.9 0.5 37
2019-01-28 02:00:00 9.6 3 Norte 12 Oeste 0 1009.9 0.9 46
2019-01-28 01:00:00 11.7 4 Sudoeste 12 Sudoeste 0 1009.6 0.8 38
2019-01-28 00:00:00 12.9 5 Sudoeste 21 Noroeste 0 1009.4 1 34
2019-01-27 23:00:00 13.2 6 Oeste 22 Noroeste 0 1009 1.1 34
2019-01-27 22:00:00 13.4 6 Oeste 15 Noroeste 0 1008.8 1.8 33
2019-01-27 21:00:00 13.8 4 Noroeste 24 Oeste 0 1008.4 2.9 32
2019-01-27 20:00:00 15.4 15 Noroeste 33 Noroeste 0 1007.9 2.6 28
2019-01-27 19:00:00 15.7 14 Noroeste 50 Noroeste 0 1007 2.1 32
2019-01-27 18:00:00 16.8 27 Noroeste 48 Oeste 0 1005.5 1.1 33
2019-01-27 17:00:00 17.8 24 Noroeste 51 Noroeste 0 1005.3 1.3 34
2019-01-27 16:00:00 18.1 33 Noroeste 57 Noroeste 0 1004.9 0 32
2019-01-27 15:00:00 18.9 27 Noroeste 48 Norte 0 1004.4 -0.8 32
2019-01-27 14:00:00 19 26 Noroeste 43 Noroeste 0 1004 -1.3 32
2019-01-27 13:00:00 20.1 24 Noroeste 44 Noroeste 0 1004.9 -0.1 28
2019-01-27 12:00:00 19 18 Noroeste 34 Oeste 0 1005.2 0.3 33
2019-01-27 11:00:00 16.5 15 Noroeste 29 Noroeste 0 1005.3 0.5 44
2019-01-27 10:00:00 12 5 Oeste 15 Norte 0 1005 0.3 50
2019-01-27 09:00:00 6 4 Sur 12 Sur 0 1004.9 -0.1 70
2019-01-27 08:00:00 5.2 3 Sur 9 Sudoeste 0 1004.8 -0.8 71
2019-01-27 07:00:00 7.5 6 Sudoeste 12 Sudoeste 0 1004.7 -1.8 62
2019-01-27 06:00:00 7.7 6 Sudoeste 14 Sudoeste 0 1005 -2.2 62
2019-01-27 05:00:00 9.6 8 Sudoeste 17 Sudoeste 0 1005.6 -1.9 62
2019-01-27 04:00:00 8.1 9 Oeste 12 Oeste 0 1006.5 -1.6 76
2019-01-27 03:00:00 7.6 8 Oeste 11 Oeste 0 1007.2 -1.4 79
2019-01-27 02:00:00 7.2 6 Oeste 8 Sudoeste 0 1007.5 -1.3 78
2019-01-27 01:00:00 7.6 3 Sur 8 Sudeste 0 1008.1 -1 79
2019-01-27 00:00:00 9.2 2 Oeste 12 Oeste 0 1008.6 -0.7 74
2019-01-26 23:00:00 9.4 0 Calma 8 Sur 0 1008.8 -0.5 74
2019-01-26 22:00:00 11.5 5 Sur 10 Oeste 0 1009.1 -0.1 71
2019-01-26 21:00:00 12.4 3 Sudoeste 13 Oeste 0 1009.3 0 64
2019-01-26 20:00:00 14.5 8 Sudoeste 14 Sudoeste 0 1009.3 -0.4 58
2019-01-26 19:00:00 16.3 6 Sur 9 Sudoeste 0 1009.2 -0.9 50
2019-01-26 18:00:00 19.8 4 Sudeste 10 Sur 0 1009.3 -1.4 40
2019-01-26 17:00:00 20.5 3 Nordeste 9 Sudoeste 0 1009.7 -1.9 34
2019-01-26 16:00:00 21.1 3 Sudeste 16 Sudoeste 0 1010.1 -2.9 32
2019-01-26 15:00:00 19.9 5 Oeste 11 Sur 0 1010.7 -3.2 35
2019-01-26 14:00:00 19.1 4 Oeste 11 Oeste 0 1011.6 -2.5 35
2019-01-26 13:00:00 17.4 5 Sudoeste 12 Norte 0 1013 -0.8 38
2019-01-26 12:00:00 15.5 5 Noroeste 10 Noroeste 0 1013.9 0.3 43
2019-01-26 11:00:00 13.6 5 Noroeste 12 Noroeste 0 1014.1 1.1 48
2019-01-26 10:00:00 11.9 3 Noroeste 6 Noroeste 0 1013.8 1.4 55
2019-01-26 09:00:00 7.3 2 Noroeste 5 Noroeste 0 1013.6 1.6 72
2019-01-26 08:00:00 6.8 5 Noroeste 8 Noroeste 0 1013 1.3 71
2019-01-26 07:00:00 7.9 2 Noroeste 11 Sudoeste 0 1012.4 1 65
2019-01-26 06:00:00 11.4 6 Oeste 15 Oeste 0 1012 1.1 54
2019-01-26 05:00:00 12.2 9 Oeste 26 Noroeste 0 1011.7 1.1 51
2019-01-26 04:00:00 13.3 16 Oeste 30 Oeste 0 1011.4 1.1 48
2019-01-26 03:00:00 13.9 19 Noroeste 30 Noroeste 0 1010.9 0.9 46
2019-01-26 02:00:00 14.4 13 Oeste 21 Noroeste 0 1010.6 0.8 46
2019-01-26 01:00:00 15.2 9 Oeste 21 Oeste 0 1010.3 0.7 44
2019-01-26 00:00:00 16.1 13 Oeste 27 Noroeste 0 1010 0.7 41
2019-01-25 23:00:00 15.4 8 Oeste 20 Oeste 0 1009.8 1.2 44
2019-01-25 22:00:00 15.3 11 Oeste 19 Oeste 0 1009.6 1.5 46
2019-01-25 21:00:00 16.2 7 Sudoeste 19 Oeste 0 1009.3 1.5 44
2019-01-25 20:00:00 17.3 12 Oeste 21 Oeste 0 1008.6 0.9 40
2019-01-25 19:00:00 17.7 9 Oeste 24 Oeste 0 1008.1 0.3 39
2019-01-25 18:00:00 19.5 10 Noroeste 27 Oeste 0 1007.8 0.3 35
2019-01-25 17:00:00 20.5 15 Oeste 33 Noroeste 0 1007.7 -0.3 33
2019-01-25 16:00:00 20.3 22 Noroeste 40 Noroeste 0 1007.8 -0.2 34
2019-01-25 15:00:00 20.5 25 Noroeste 45 Noroeste 0 1007.5 -1 33
2019-01-25 14:00:00 20.5 25 Noroeste 42 Noroeste 0 1008 -0.6 32
2019-01-25 13:00:00 20 20 Noroeste 40 Noroeste 0 1008 -0.3 33
2019-01-25 12:00:00 19 19 Noroeste 40 Noroeste 0 1008.5 0.7 37
2019-01-25 11:00:00 17.9 18 Noroeste 35 Oeste 0 1008.6 1.4 41
2019-01-25 10:00:00 16.4 17 Noroeste 28 Noroeste 0 1008.3 1.8 45
2019-01-25 09:00:00 14.1 10 Oeste 26 Sudoeste 0 1007.8 1.7 52
2019-01-25 08:00:00 13.1 9 Noroeste 23 Noroeste 0 1007.2 1.1 55
2019-01-25 07:00:00 12.8 6 Sudoeste 13 Nordeste 0 1006.5 0.1 56
2019-01-25 06:00:00 12.5 8 Este 19 Noroeste 0 1006.1 0 57
2019-01-25 05:00:00 13.3 7 Noroeste 16 Noroeste 0 1006.1 0.1 54
2019-01-25 04:00:00 14.2 6 Oeste 31 Noroeste 0 1006.4 0.2 50
2019-01-25 03:00:00 14.3 17 Noroeste 28 Noroeste 0 1006.1 0.1 50
2019-01-25 02:00:00 14.5 12 Noroeste 25 Noroeste 0 1006 0.5 50
2019-01-25 01:00:00 14.6 10 Noroeste 17 Noroeste 0 1006.2 1.3 49
2019-01-25 00:00:00 15.1 6 Sudoeste 14 Oeste 0 1006 1.5 49
2019-01-24 23:00:00 15.3 7 Oeste 25 Noroeste 0 1005.5 1.5 49
2019-01-24 22:00:00 15 13 Noroeste 26 Noroeste 0 1004.9 1.9 51
2019-01-24 21:00:00 16.3 14 Norte 26 Norte 0 1004.5 2.5 46
2019-01-24 20:00:00 14 6 Nordeste 26 Norte 0 1004 2.7 59
2019-01-24 19:00:00 17.3 12 Norte 28 Norte 0 1003 2.1 46
2019-01-24 18:00:00 18 13 Norte 41 Noroeste 0 1002 1.3 43
2019-01-24 17:00:00 18.8 23 Noroeste 51 Noroeste 0 1001.3 0.8 40
2019-01-24 16:00:00 19.1 28 Noroeste 61 Noroeste 0 1000.9 0 37
2019-01-24 15:00:00 18.7 26 Noroeste 48 Noroeste 0 1000.7 -0.3 37
2019-01-24 14:00:00 19 22 Noroeste 48 Noroeste 0 1000.5 -0.3 36
2019-01-24 13:00:00 19.6 24 Noroeste 49 Noroeste 0 1000.9 0.7 35
2019-01-24 12:00:00 18.7 28 Noroeste 52 Noroeste 0 1001 1.4 38
2019-01-24 11:00:00 17.6 19 Noroeste 33 Noroeste 0 1000.8 2.4 42
2019-01-24 10:00:00 16.3 4 Norte 18 Noroeste 0 1000.2 2.9 44
2019-01-24 09:00:00 16.2 5 Noroeste 29 Oeste 0 999.6 2.2 45
2019-01-24 08:00:00 15.5 9 Oeste 35 Oeste 0 998.4 1.1 47
2019-01-24 07:00:00 15.3 12 Oeste 26 Noroeste 0 997.3 0 47
2019-01-24 06:00:00 15.9 18 Oeste 41 Oeste 0 997.4 0.1 46
2019-01-24 05:00:00 16 19 Oeste 39 Oeste 0 997.3 -0.6 45
2019-01-24 04:00:00 16.1 18 Oeste 51 Oeste 0 997.3 -0.4 44
2019-01-24 03:00:00 16.3 18 Oeste 36 Noroeste 0 997.3 0.2 44
2019-01-24 02:00:00 16.5 19 Oeste 36 Oeste 0 997.9 0.4 43
2019-01-24 01:00:00 15 8 Noroeste 26 Oeste 0 997.7 0.1 46
2019-01-24 00:00:00 16.9 15 Oeste 30 Oeste 0 997.1 0 40
2019-01-23 23:00:00 17 18 Oeste 36 Oeste 0 997.5 0.2 41
2019-01-23 22:00:00 17.2 24 Oeste 52 Oeste 0 997.6 0.4 40
2019-01-23 21:00:00 17 28 Oeste 51 Oeste 0 997.1 0 42
2019-01-23 20:00:00 17.1 24 Oeste 47 Oeste 0 997.3 0.1 41
2019-01-23 19:00:00 17.3 24 Oeste 57 Oeste 0 997.2 -0.2 39
2019-01-23 18:00:00 17.5 32 Oeste 50 Oeste 0 997.1 0.3 39
2019-01-23 17:00:00 17.5 25 Oeste 43 Oeste 0 997.2 -0.4 39
2019-01-23 16:00:00 17.6 28 Oeste 51 Oeste 0 997.4 0 38
2019-01-23 15:00:00 18.4 30 Noroeste 56 Noroeste 0 996.8 -1.2 36
2019-01-23 14:00:00 18.9 36 Noroeste 59 Noroeste 0 997.6 -1.5 33
2019-01-23 13:00:00 19.2 30 Noroeste 56 Noroeste 0 997.4 -2.1 32
2019-01-23 12:00:00 18 24 Oeste 39 Oeste 0 998 -2.3 34
2019-01-23 11:00:00 15 12 Sudoeste 22 Oeste 0 999.1 -2.2 45
2019-01-23 10:00:00 12.5 11 Sudoeste 23 Sur 0 999.5 -2.2 52
2019-01-23 09:00:00 9.6 9 Sudoeste 16 Sudoeste 0 1000.3 -1.8 62
2019-01-23 08:00:00 7.3 5 Sur 11 Sur 0 1001.3 -0.7 71
2019-01-23 07:00:00 7.8 3 Oeste 9 Oeste 0 1001.7 -1 71
2019-01-23 06:00:00 10.6 9 Oeste 16 Oeste 0 1002.1 -1.1 61
2019-01-23 05:00:00 11 14 Oeste 24 Oeste 0 1002 -1.5 59
2019-01-23 04:00:00 10.2 4 Sudeste 21 Oeste 0 1002.7 -1.1 61
2019-01-23 03:00:00 11 13 Oeste 22 Oeste 0 1003.2 -1.4 58
2019-01-23 02:00:00 10.1 3 Sudoeste 12 Sudeste 0 1003.5 -1.3 57
2019-01-23 01:00:00 11.1 5 Sudeste 27 Oeste 0 1003.8 -1.2 52
2019-01-23 00:00:00 11.5 19 Oeste 29 Noroeste 0 1004.6 -0.6 52
2019-01-22 23:00:00 10.7 11 Oeste 20 Oeste 0 1004.8 -0.6 51
2019-01-22 22:00:00 11.4 13 Noroeste 27 Noroeste 0 1005 -0.4 48
2019-01-22 21:00:00 11.9 18 Noroeste 41 Noroeste 0 1005.2 -0.1 45
2019-01-22 20:00:00 12 9 Oeste 21 Oeste 0 1005.4 -0.2 42
2019-01-22 19:00:00 11.9 7 Oeste 25 Noroeste 0 1005.4 -0.4 40
2019-01-22 18:00:00 13.1 16 Oeste 28 Oeste 0 1005.3 -1.1 36
2019-01-22 17:00:00 14 14 Noroeste 29 Noroeste 0 1005.6 -1.9 34
2019-01-22 16:00:00 13.7 15 Noroeste 33 Noroeste 0 1005.8 -3.2 34
2019-01-22 15:00:00 13.8 16 Oeste 28 Oeste 0 1006.4 -3.6 32
2019-01-22 14:00:00 13.3 12 Oeste 26 Noroeste 0 1007.5 -3.1 33
2019-01-22 13:00:00 12.3 11 Oeste 28 Sudoeste 0 1009 -2 34
2019-01-22 12:00:00 11.6 9 Noroeste 23 Oeste 0 1010 -1.2 38
2019-01-22 11:00:00 8 0 Calma 7 Nordeste 0 1010.6 -0.6 54
2019-01-22 10:00:00 7.8 6 Este 9 Este 0 1011 0 51
2019-01-22 09:00:00 3.5 3 Noroeste 7 Noroeste 0 1011.2 0.3 65
2019-01-22 08:00:00 4.3 3 Norte 12 Sur 0 1011.2 0.1 57
2019-01-22 07:00:00 7.1 8 Sudoeste 19 Oeste 0 1011 -0.5 46
2019-01-22 06:00:00 7.1 10 Oeste 23 Oeste 0 1010.9 -0.9 46
2019-01-22 05:00:00 6.9 13 Noroeste 28 Noroeste 0 1011.1 -1.1 49
2019-01-22 04:00:00 7.6 17 Noroeste 24 Noroeste 0 1011.5 -1.4 48
2019-01-22 03:00:00 4.6 7 Oeste 12 Oeste 0 1011.8 -1 61
2019-01-22 02:00:00 6.3 6 Sudoeste 10 Noroeste 0 1012.2 -0.2 55
2019-01-22 01:00:00 7.8 7 Oeste 16 Noroeste 0 1012.9 0.7 50
2019-01-22 00:00:00 8.4 10 Noroeste 21 Noroeste 0 1012.8 1 47
2019-01-21 23:00:00 9.1 12 Noroeste 17 Noroeste 0 1012.4 0.9 45
2019-01-21 22:00:00 9.8 10 Noroeste 22 Noroeste 0 1012.2 1 44
2019-01-21 21:00:00 10 15 Oeste 21 Oeste 0 1011.8 0.9 47
2019-01-21 20:00:00 10.4 10 Oeste 15 Oeste 0 1011.5 0.8 45
2019-01-21 19:00:00 11.5 9 Noroeste 19 Noroeste 0 1011.2 0.8 43
2019-01-21 18:00:00 13.4 13 Noroeste 33 Noroeste 0 1010.9 0.6 37
2019-01-21 17:00:00 14.4 21 Noroeste 35 Noroeste 0 1010.7 -0.1 34
2019-01-21 16:00:00 15.2 17 Noroeste 32 Norte 0 1010.4 -1.1 34
2019-01-21 15:00:00 14.8 20 Noroeste 37 Norte 0 1010.3 -2 34
2019-01-21 14:00:00 14.5 18 Noroeste 34 Noroeste 0 1010.8 -1.3 38
2019-01-21 13:00:00 13.5 19 Noroeste 36 Noroeste 0 1011.5 -0.3 42
2019-01-21 12:00:00 12.1 19 Noroeste 38 Noroeste 0 1012.3 0.9 47
2019-01-21 11:00:00 10.7 18 Noroeste 34 Norte 0 1012.1 1.3 53
2019-01-21 10:00:00 9.3 12 Oeste 22 Noroeste 0 1011.8 1.3 57
2019-01-21 09:00:00 5.8 8 Sur 18 Noroeste 0 1011.4 1.5 71
2019-01-21 08:00:00 6.7 12 Oeste 20 Noroeste 0 1010.8 0.8 67
2019-01-21 07:00:00 6 6 Noroeste 17 Noroeste 0 1010.5 0.5 70
2019-01-21 06:00:00 6.2 9 Noroeste 15 Noroeste 0 1009.9 0.3 71
2019-01-21 05:00:00 5.3 0 Calma 12 Noroeste 0 1010 0.9 75
2019-01-21 04:00:00 6.9 7 Noroeste 17 Noroeste 0 1010 1 67
2019-01-21 03:00:00 9 12 Oeste 21 Noroeste 0 1009.6 0.8 60
2019-01-21 02:00:00 8.7 9 Noroeste 17 Oeste 0 1009.1 0.9 62
2019-01-21 01:00:00 9.4 9 Oeste 18 Noroeste 0 1009 1.8 60
2019-01-21 00:00:00 8.6 11 Noroeste 15 Oeste 0 1008.8 2.5 61
2019-01-20 23:00:00 9.9 10 Noroeste 16 Noroeste 0 1008.2 2.8 54
2019-01-20 22:00:00 10.5 8 Noroeste 18 Noroeste 0 1007.2 2.6 53
2019-01-20 21:00:00 10.2 10 Noroeste 14 Noroeste 0 1006.3 2.4 57
2019-01-20 20:00:00 10.7 7 Noroeste 14 Norte 0 1005.4 2.1 58
2019-01-20 19:00:00 10.8 6 Oeste 9 Oeste 0 1004.6 2.2 64
2019-01-20 18:00:00 12.5 5 Noroeste 20 Noroeste 0 1003.9 1.9 60
2019-01-20 17:00:00 13.7 8 Norte 37 Noroeste 0 1003.3 1.4 61
2019-01-20 16:00:00 13.9 21 Noroeste 37 Noroeste 0 1002.4 0.3 57
2019-01-20 15:00:00 13.4 19 Noroeste 36 Noroeste 0 1002 -0.2 63
2019-01-20 14:00:00 14.3 16 Noroeste 31 Noroeste 0 1001.9 0 61
2019-01-20 13:00:00 13.7 11 Noroeste 25 Oeste 0 1002.1 0.8 70
2019-01-20 12:00:00 12.6 3 Oeste 8 Norte 0 1002.2 0.9 74
2019-01-20 11:00:00 10.9 3 Sudoeste 5 Sudoeste 0 1001.9 0.8 87
2019-01-20 10:00:00 8.3 3 Oeste 13 Oeste 0.6 1001.3 0.4 92
2019-01-20 09:00:00 7.9 9 Oeste 12 Oeste 0 1001.3 0.4 91
2019-01-20 08:00:00 7.7 5 Sudoeste 8 Sudoeste 0 1001.1 -0.3 92
2019-01-20 07:00:00 7.5 3 Sudoeste 6 Noroeste 0 1000.9 -1.4 93
2019-01-20 06:00:00 8.1 6 Noroeste 8 Noroeste 0 1000.9 -1.9 92
2019-01-20 05:00:00 8.7 2 Oeste 5 Sudeste 0 1001.4 -1.9 92
2019-01-20 04:00:00 9.1 3 Sur 9 Noroeste 0.2 1002.3 -2 89
2019-01-20 03:00:00 9 0 Calma 5 Oeste 0 1002.8 -2.2 90
2019-01-20 02:00:00 9.5 3 Oeste 5 Oeste 0.4 1003.3 -1.9 90
2019-01-20 01:00:00 10.3 2 Oeste 8 Oeste 0 1004.3 -1.2 82
2019-01-20 00:00:00 11.1 7 Oeste 11 Oeste 0 1005 -1 75
2019-01-19 23:00:00 10.8 4 Oeste 12 Oeste 0 1005.2 -1.2 76
2019-01-19 22:00:00 10.4 3 Norte 9 Noroeste 0 1005.5 -1.1 76
2019-01-19 21:00:00 10.4 8 Norte 10 Norte 0 1006 -0.7 75
2019-01-19 20:00:00 12 4 Sudoeste 8 Sur 0 1006.4 -0.3 66
2019-01-19 19:00:00 12.6 4 Sudoeste 12 Sudoeste 0 1006.6 -0.5 59
2019-01-19 18:00:00 14.4 7 Sur 12 Sur 0 1006.7 -1 48
2019-01-19 17:00:00 16.6 3 Sudoeste 8 Noroeste 0 1006.7 -1.9 32
2019-01-19 16:00:00 16.4 4 Nordeste 11 Sudoeste 0 1007.1 -2.9 33
2019-01-19 15:00:00 16.3 4 Norte 10 Oeste 0 1007.7 -3.5 34
2019-01-19 14:00:00 15.8 2 Oeste 13 Oeste 0 1008.6 -2.6 35
2019-01-19 13:00:00 14.1 11 Noroeste 16 Noroeste 0 1010 -0.8 39
2019-01-19 12:00:00 12.7 6 Oeste 14 Noroeste 0 1011.2 0.7 43
2019-01-19 11:00:00 11.4 6 Sur 17 Sur 0 1011.2 0.9 50
2019-01-19 10:00:00 7.9 4 Sur 13 Sudoeste 0 1010.8 1 62
2019-01-19 09:00:00 6 12 Oeste 17 Sudoeste 0 1010.5 0.8 65
2019-01-19 08:00:00 6.7 8 Oeste 12 Oeste 0 1010.3 0.5 63
2019-01-19 07:00:00 5.4 6 Oeste 11 Oeste 0 1009.8 -0.4 69
2019-01-19 06:00:00 5.3 3 Este 11 Noroeste 0 1009.7 -0.6 70
2019-01-19 05:00:00 7.1 7 Noroeste 11 Noroeste 0 1009.8 -0.5 63
2019-01-19 04:00:00 7.6 6 Oeste 9 Oeste 0 1010.2 -0.6 62
2019-01-19 03:00:00 8.7 5 Oeste 10 Oeste 0 1010.3 -0.7 58
2019-01-19 02:00:00 8.3 5 Noroeste 11 Oeste 0 1010.3 -0.5 64
2019-01-19 01:00:00 9.1 4 Oeste 8 Oeste 0 1010.8 0.4 62
2019-01-19 00:00:00 9.3 2 Sudoeste 6 Oeste 0 1011 0.7 72